createdAt,value
2023-03-31T00:00:48.590Z,100174.97
2023-03-31T00:03:22.554Z,100178.91
2023-03-31T00:05:53.574Z,100177.50
2023-03-31T00:08:21.559Z,100173.66
2023-03-31T00:10:49.482Z,100161.38
2023-03-31T00:13:17.522Z,100164.19
2023-03-31T00:15:46.708Z,100168.09
2023-03-31T00:18:14.406Z,100172.81
2023-03-31T00:20:42.989Z,100158.50
2023-03-31T00:23:11.123Z,100146.94
2023-03-31T00:25:41.786Z,100146.13
2023-03-31T00:28:09.490Z,100144.44
2023-03-31T00:30:37.457Z,100147.81
2023-03-31T00:33:06.967Z,100147.41
2023-03-31T00:35:39.366Z,100138.06
2023-03-31T00:38:08.905Z,100140.03
2023-03-31T00:40:36.669Z,100137.53
2023-03-31T00:43:04.314Z,100126.38
2023-03-31T00:45:32.523Z,100123.22
2023-03-31T00:48:04.574Z,100121.53
2023-03-31T00:50:37.103Z,100103.88
2023-03-31T00:53:08.838Z,100098.59
2023-03-31T00:55:39.438Z,100101.75
2023-03-31T00:58:08.530Z,100100.25
2023-03-31T01:00:36.323Z,100087.19
2023-03-31T01:03:07.506Z,100094.97
2023-03-31T01:05:39.591Z,100085.06
2023-03-31T01:08:07.428Z,100066.56
2023-03-31T01:10:41.701Z,100068.22
2023-03-31T01:13:10.137Z,100067.97
2023-03-31T01:15:38.011Z,100061.53
2023-03-31T01:18:06.283Z,100062.22
2023-03-31T01:20:41.477Z,100055.97
2023-03-31T01:23:32.172Z,100052.06
2023-03-31T01:26:38.830Z,100039.00
2023-03-31T01:29:16.174Z,100039.66
2023-03-31T01:32:07.955Z,100034.94
2023-03-31T01:35:03.974Z,100039.25
2023-03-31T01:38:13.388Z,100026.84
2023-03-31T01:40:58.943Z,100029.78
2023-03-31T01:43:31.092Z,100019.50
2023-03-31T01:46:03.011Z,100022.28
2023-03-31T01:48:41.933Z,100014.50
2023-03-31T01:51:14.623Z,100013.38
2023-03-31T01:53:47.765Z,100007.53
2023-03-31T01:56:19.797Z,100004.88
2023-03-31T01:58:52.128Z,99999.75
2023-03-31T02:01:23.443Z,99991.00
2023-03-31T02:03:56.540Z,99986.53
2023-03-31T02:06:27.070Z,99982.91
2023-03-31T02:08:57.695Z,99986.38
2023-03-31T02:11:29.898Z,99972.88
2023-03-31T02:13:58.020Z,99979.44
2023-03-31T02:16:28.003Z,99972.78
2023-03-31T02:19:02.513Z,99958.91
2023-03-31T02:21:30.826Z,99948.16
2023-03-31T02:23:58.962Z,99939.41
2023-03-31T02:26:31.157Z,99932.16
2023-03-31T02:28:59.019Z,99932.16
2023-03-31T02:31:30.434Z,99931.47
2023-03-31T02:33:58.288Z,99919.38
2023-03-31T02:36:26.496Z,99923.81
2023-03-31T02:38:57.964Z,99920.50
2023-03-31T02:41:25.892Z,99917.84
2023-03-31T02:43:54.967Z,99903.66
2023-03-31T02:46:22.936Z,99904.94
2023-03-31T02:48:53.110Z,99889.22
2023-03-31T02:51:51.283Z,99882.41
2023-03-31T02:54:27.465Z,99862.09
2023-03-31T02:57:11.200Z,99853.03
2023-03-31T02:59:48.047Z,99848.00
2023-03-31T03:02:19.956Z,99843.09
2023-03-31T03:05:19.020Z,99839.47
2023-03-31T03:07:50.390Z,99838.34
2023-03-31T03:10:24.066Z,99829.13
2023-03-31T03:12:58.648Z,99824.53
2023-03-31T03:15:30.103Z,99824.25
2023-03-31T03:17:58.081Z,99817.41
2023-03-31T03:20:26.119Z,99799.75
2023-03-31T03:22:53.853Z,99797.09
2023-03-31T03:25:21.867Z,99787.06
2023-03-31T03:27:49.640Z,99781.78
2023-03-31T03:30:17.586Z,99772.03
2023-03-31T03:32:46.746Z,99774.00
2023-03-31T03:35:14.822Z,99758.44
2023-03-31T03:37:42.561Z,99746.78
2023-03-31T03:40:11.343Z,99746.72
2023-03-31T03:42:39.477Z,99746.56
2023-03-31T03:45:07.989Z,99743.25
2023-03-31T03:47:36.167Z,99734.50
2023-03-31T03:50:06.048Z,99739.09
2023-03-31T03:52:33.774Z,99740.91
2023-03-31T03:55:01.969Z,99730.34
2023-03-31T03:57:29.943Z,99735.47
2023-03-31T03:59:57.702Z,99728.22
2023-03-31T04:02:27.970Z,99729.22
2023-03-31T04:04:55.872Z,99722.94
2023-03-31T04:07:25.032Z,99709.56
2023-03-31T04:09:52.663Z,99700.81
2023-03-31T04:12:20.343Z,99696.50
2023-03-31T04:14:48.084Z,99690.22
2023-03-31T04:17:16.320Z,99691.22
2023-03-31T04:19:44.005Z,99680.97
2023-03-31T04:22:15.383Z,99677.66
2023-03-31T04:24:46.574Z,99677.31
2023-03-31T04:27:17.369Z,99665.09
2023-03-31T04:29:54.615Z,99667.44
2023-03-31T04:32:22.794Z,99659.50
2023-03-31T04:34:51.665Z,99659.34
2023-03-31T04:37:19.389Z,99647.28
2023-03-31T04:39:50.776Z,99639.19
2023-03-31T04:42:18.523Z,99634.06
2023-03-31T04:44:46.260Z,99635.03
2023-03-31T04:47:14.051Z,99635.72
2023-03-31T04:49:41.784Z,99631.13
2023-03-31T04:52:09.531Z,99626.94
2023-03-31T04:54:37.216Z,99620.56
2023-03-31T04:57:06.487Z,99615.38
2023-03-31T04:59:34.222Z,99617.22
2023-03-31T05:02:01.917Z,99606.63
2023-03-31T05:04:29.627Z,99608.00
2023-03-31T05:06:57.346Z,99606.03
2023-03-31T05:09:25.279Z,99603.53
2023-03-31T05:11:52.938Z,99594.13
2023-03-31T05:14:22.089Z,99594.41
2023-03-31T05:16:49.894Z,99582.03
2023-03-31T05:19:18.310Z,99573.25
2023-03-31T05:21:46.647Z,99558.56
2023-03-31T05:24:14.911Z,99556.56
2023-03-31T05:26:47.966Z,99546.00
2023-03-31T05:29:16.612Z,99548.47
2023-03-31T05:31:45.937Z,99533.94
2023-03-31T05:34:13.651Z,99527.13
2023-03-31T05:36:41.295Z,99521.34
2023-03-31T05:39:09.035Z,99516.38
2023-03-31T05:41:36.886Z,99508.59
2023-03-31T05:44:04.566Z,99516.22
2023-03-31T05:46:32.752Z,99502.19
2023-03-31T05:49:02.644Z,99496.19
2023-03-31T05:51:30.368Z,99493.06
2023-03-31T05:53:58.116Z,99486.13
2023-03-31T05:56:27.510Z,99481.66
2023-03-31T05:58:55.365Z,99474.72
2023-03-31T06:01:23.827Z,99468.63
2023-03-31T06:03:51.886Z,99476.06
2023-03-31T06:06:21.376Z,99465.66
2023-03-31T06:08:50.085Z,99460.38
2023-03-31T06:11:19.447Z,99459.69
2023-03-31T06:13:47.436Z,99458.88
2023-03-31T06:16:17.178Z,99447.97
2023-03-31T06:18:45.231Z,99442.69
2023-03-31T06:21:14.641Z,99435.75
2023-03-31T06:23:44.359Z,99439.38
2023-03-31T06:26:13.397Z,99435.75
2023-03-31T06:28:41.121Z,99430.13
2023-03-31T06:31:12.035Z,99429.19
2023-03-31T06:33:40.538Z,99422.91
2023-03-31T06:36:09.343Z,99419.56
2023-03-31T06:38:38.858Z,99414.00
2023-03-31T06:41:09.317Z,99405.06
2023-03-31T06:43:37.240Z,99406.38
2023-03-31T06:46:05.826Z,99407.56
2023-03-31T06:48:33.810Z,99404.63
2023-03-31T06:51:02.611Z,99405.47
2023-03-31T06:53:30.667Z,99394.06
2023-03-31T06:55:58.964Z,99394.06
2023-03-31T06:58:31.184Z,99383.31
2023-03-31T07:00:59.571Z,99384.31
2023-03-31T07:03:29.565Z,99365.47
2023-03-31T07:05:57.777Z,99373.75
2023-03-31T07:08:25.741Z,99374.56
2023-03-31T07:10:57.741Z,99369.78
2023-03-31T07:13:26.268Z,99374.75
2023-03-31T07:15:56.150Z,99367.47
2023-03-31T07:18:26.201Z,99370.78
2023-03-31T07:20:54.218Z,99356.91
2023-03-31T07:23:22.188Z,99362.19
2023-03-31T07:25:50.357Z,99366.00
2023-03-31T07:28:18.240Z,99363.19
2023-03-31T07:30:45.961Z,99372.78
2023-03-31T07:33:15.578Z,99355.75
2023-03-31T07:35:43.619Z,99356.56
2023-03-31T07:38:12.055Z,99347.31
2023-03-31T07:40:40.426Z,99351.28
2023-03-31T07:43:08.353Z,99347.34
2023-03-31T07:45:36.334Z,99347.00
2023-03-31T07:48:04.142Z,99346.34
2023-03-31T07:50:33.292Z,99337.13
2023-03-31T07:53:01.038Z,99331.31
2023-03-31T07:55:28.726Z,99335.78
2023-03-31T07:57:56.605Z,99339.41
2023-03-31T08:00:24.735Z,99335.94
2023-03-31T08:02:52.694Z,99342.41
2023-03-31T08:05:21.966Z,99336.25
2023-03-31T08:07:51.823Z,99334.13
2023-03-31T08:10:22.452Z,99339.78
2023-03-31T08:12:50.294Z,99348.03
2023-03-31T08:15:18.304Z,99342.72
2023-03-31T08:17:46.189Z,99338.78
2023-03-31T08:20:14.536Z,99338.13
2023-03-31T08:22:42.318Z,99336.44
2023-03-31T08:25:11.712Z,99339.25
2023-03-31T08:27:40.789Z,99330.84
2023-03-31T08:30:10.529Z,99332.50
2023-03-31T08:32:38.404Z,99321.91
2023-03-31T08:35:07.382Z,99326.22
2023-03-31T08:37:35.682Z,99319.94
2023-03-31T08:40:05.395Z,99313.97
2023-03-31T08:42:38.252Z,99314.81
2023-03-31T08:45:10.918Z,99311.81
2023-03-31T08:47:39.153Z,99314.31
2023-03-31T08:50:09.649Z,99310.69
2023-03-31T08:52:40.797Z,99306.03
2023-03-31T08:55:13.438Z,99298.94
2023-03-31T08:57:52.783Z,99310.34
2023-03-31T09:00:21.540Z,99313.81
2023-03-31T09:02:53.138Z,99312.50
2023-03-31T09:05:59.586Z,99308.69
2023-03-31T09:08:34.590Z,99313.47
2023-03-31T09:11:09.281Z,99311.50
2023-03-31T09:13:53.303Z,99310.34
2023-03-31T09:16:24.515Z,99303.41
2023-03-31T09:18:53.822Z,99304.22
2023-03-31T09:21:24.346Z,99307.69
2023-03-31T09:23:57.103Z,99298.44
2023-03-31T09:26:28.449Z,99273.31
2023-03-31T09:28:59.037Z,99280.06
2023-03-31T09:31:26.992Z,99272.66
2023-03-31T09:33:58.930Z,99262.25
2023-03-31T09:36:26.684Z,99257.94
2023-03-31T09:38:54.458Z,99249.84
2023-03-31T09:41:22.304Z,99272.47
2023-03-31T09:43:51.861Z,99265.72
2023-03-31T09:46:27.893Z,99246.38
2023-03-31T09:49:00.352Z,99255.97
2023-03-31T09:51:32.572Z,99233.00
2023-03-31T09:54:04.278Z,99240.25
2023-03-31T09:56:46.363Z,99236.63
2023-03-31T09:59:17.820Z,99228.03
2023-03-31T10:01:48.476Z,99222.75
2023-03-31T10:04:21.690Z,99221.44
2023-03-31T10:06:50.052Z,99237.31
2023-03-31T10:09:18.232Z,99228.69
2023-03-31T10:11:57.740Z,99220.28
2023-03-31T10:14:28.606Z,99227.38
2023-03-31T10:16:58.785Z,99217.44
2023-03-31T10:19:28.616Z,99225.06
2023-03-31T10:22:00.790Z,99232.47
2023-03-31T10:24:38.099Z,99230.81
2023-03-31T10:27:07.569Z,99224.53
2023-03-31T10:29:35.794Z,99224.84
2023-03-31T10:32:06.576Z,99217.72
2023-03-31T10:34:34.999Z,99213.88
2023-03-31T10:37:05.576Z,99219.34
2023-03-31T10:39:33.838Z,99216.66
2023-03-31T10:42:02.144Z,99217.78
2023-03-31T10:44:35.529Z,99204.69
2023-03-31T10:47:07.951Z,99213.97
2023-03-31T10:49:39.380Z,99208.31
2023-03-31T10:52:17.111Z,99205.31
2023-03-31T10:54:49.171Z,99202.66
2023-03-31T10:57:17.314Z,99202.53
2023-03-31T10:59:59.524Z,99190.75
2023-03-31T11:03:04.571Z,99196.81
2023-03-31T11:05:37.685Z,99192.66
2023-03-31T11:08:18.677Z,99178.41
2023-03-31T11:10:59.166Z,99191.97
2023-03-31T11:13:32.432Z,99187.13
2023-03-31T11:16:08.099Z,99187.78
2023-03-31T11:18:54.201Z,99182.00
2023-03-31T11:21:26.922Z,99191.78
2023-03-31T11:24:02.765Z,99180.06
2023-03-31T11:26:37.228Z,99187.06
2023-03-31T11:29:16.391Z,99183.75
2023-03-31T11:31:50.848Z,99182.44
2023-03-31T11:34:34.403Z,99186.44
2023-03-31T11:37:17.142Z,99186.28
2023-03-31T11:39:55.575Z,99195.03
2023-03-31T11:42:27.520Z,99181.56
2023-03-31T11:44:58.305Z,99182.00
2023-03-31T11:47:28.214Z,99174.31
2023-03-31T11:49:59.246Z,99181.78
2023-03-31T11:52:30.590Z,99168.28
2023-03-31T11:55:02.963Z,99174.53
2023-03-31T11:57:33.289Z,99168.69
2023-03-31T12:00:07.196Z,99159.94
2023-03-31T12:02:41.679Z,99164.75
2023-03-31T12:05:12.189Z,99163.91
2023-03-31T12:07:43.044Z,99172.06
2023-03-31T12:10:18.918Z,99166.50
2023-03-31T12:12:49.966Z,99167.84
2023-03-31T12:15:21.076Z,99153.28
2023-03-31T12:17:51.785Z,99171.00
2023-03-31T12:20:26.942Z,99167.25
2023-03-31T12:22:55.900Z,99160.31
2023-03-31T12:25:26.542Z,99152.34
2023-03-31T12:27:54.880Z,99160.94
2023-03-31T12:30:30.384Z,99151.00
2023-03-31T12:33:00.767Z,99151.09
2023-03-31T12:35:37.284Z,99146.25
2023-03-31T12:38:28.023Z,99138.97
2023-03-31T12:41:00.847Z,99135.56
2023-03-31T12:43:53.746Z,99139.34
2023-03-31T12:46:44.301Z,99135.88
2023-03-31T12:49:21.727Z,99122.50
2023-03-31T12:52:00.302Z,99135.06
2023-03-31T12:54:51.749Z,99137.69
2023-03-31T12:57:22.372Z,99127.28
2023-03-31T13:00:21.057Z,99130.03
2023-03-31T13:02:49.399Z,99125.47
2023-03-31T13:05:47.206Z,99118.44
2023-03-31T13:08:50.862Z,99116.97
2023-03-31T13:11:19.119Z,99120.47
2023-03-31T13:16:36.968Z,99107.28
2023-03-31T13:19:04.966Z,99107.94
2023-03-31T13:21:32.772Z,99107.94
2023-03-31T13:24:03.213Z,99105.75
2023-03-31T13:26:42.377Z,99103.56
2023-03-31T13:29:22.520Z,99099.22
2023-03-31T13:32:23.545Z,99093.09
2023-03-31T13:35:00.632Z,99094.13
2023-03-31T13:37:47.018Z,99091.38
2023-03-31T13:40:28.047Z,99099.06
2023-03-31T13:43:20.819Z,99102.34
2023-03-31T13:45:55.700Z,99087.63
2023-03-31T13:48:36.150Z,99095.59
2023-03-31T13:51:39.237Z,99094.59
2023-03-31T13:54:36.978Z,99089.28
2023-03-31T13:57:38.589Z,99098.25
2023-03-31T14:00:17.640Z,99087.63
2023-03-31T14:02:54.444Z,99081.50
2023-03-31T14:05:27.230Z,99085.13
2023-03-31T14:07:57.202Z,99080.31
2023-03-31T14:10:27.523Z,99072.72
2023-03-31T14:13:11.011Z,99078.66
2023-03-31T14:15:40.953Z,99069.31
2023-03-31T14:18:09.076Z,99079.59
2023-03-31T14:20:42.216Z,99069.31
2023-03-31T14:23:18.024Z,99065.22
2023-03-31T14:25:51.865Z,99059.91
2023-03-31T14:28:31.352Z,99054.59
2023-03-31T14:31:10.991Z,99059.72
2023-03-31T14:33:43.718Z,99058.72
2023-03-31T14:36:15.925Z,99040.34
2023-03-31T14:38:44.520Z,99043.28
2023-03-31T14:41:20.012Z,99033.81
2023-03-31T14:43:50.466Z,99033.81
2023-03-31T14:46:21.819Z,99041.16
2023-03-31T14:48:51.308Z,99039.06
2023-03-31T14:51:20.197Z,99042.78
2023-03-31T14:53:47.887Z,99055.31
2023-03-31T14:56:18.270Z,99053.94
2023-03-31T14:58:50.529Z,99052.09
2023-03-31T15:01:21.237Z,99057.84
2023-03-31T15:03:49.228Z,99046.94
2023-03-31T15:06:17.192Z,99035.88
2023-03-31T15:08:45.605Z,99045.75
2023-03-31T15:11:19.158Z,99048.06
2023-03-31T15:14:03.754Z,99031.78
2023-03-31T15:16:36.084Z,99019.38
2023-03-31T15:19:09.076Z,99018.00
2023-03-31T15:21:39.288Z,99024.13
2023-03-31T15:29:23.291Z,99030.94
2023-03-31T15:31:51.380Z,99045.06
2023-03-31T15:34:23.143Z,99045.25
2023-03-31T15:36:51.152Z,99034.66
2023-03-31T15:39:18.886Z,99041.97
2023-03-31T15:41:48.924Z,99033.38
2023-03-31T15:44:31.425Z,99036.00
2023-03-31T15:47:00.985Z,99036.56
2023-03-31T15:49:29.654Z,99031.78
2023-03-31T15:52:00.490Z,99020.06
2023-03-31T15:54:34.881Z,99024.28
2023-03-31T15:57:05.088Z,99024.91
2023-03-31T16:00:47.348Z,99021.97
2023-03-31T16:03:18.414Z,99031.53
2023-03-31T16:05:54.723Z,99023.16
2023-03-31T16:08:26.504Z,99029.94
2023-03-31T16:11:00.574Z,99023.19
2023-03-31T16:13:28.507Z,99032.94
2023-03-31T16:15:58.027Z,99025.00
2023-03-31T16:18:29.326Z,99020.88
2023-03-31T16:20:59.465Z,99025.69
2023-03-31T16:23:30.296Z,99013.81
2023-03-31T16:25:58.385Z,99009.81
2023-03-31T16:28:27.589Z,99022.69
2023-03-31T16:30:55.795Z,99006.16
2023-03-31T16:33:25.403Z,99008.50
2023-03-31T16:35:56.189Z,99007.81
2023-03-31T16:38:25.535Z,99010.13
2023-03-31T16:40:54.663Z,99007.81
2023-03-31T16:43:23.819Z,99009.19
2023-03-31T16:45:52.850Z,99005.53
2023-03-31T16:48:21.783Z,99008.34
2023-03-31T16:50:52.937Z,99005.22
2023-03-31T16:53:22.220Z,99001.94
2023-03-31T16:55:50.038Z,99012.16
2023-03-31T16:58:18.068Z,99007.22
2023-03-31T17:00:46.700Z,99004.22
2023-03-31T17:03:15.661Z,99006.53
2023-03-31T17:05:44.751Z,99009.34
2023-03-31T17:08:14.323Z,99019.28
2023-03-31T17:10:42.594Z,99019.81
2023-03-31T17:13:10.968Z,99022.16
2023-03-31T17:15:38.828Z,99021.22
2023-03-31T17:18:07.282Z,99016.59
2023-03-31T17:20:35.641Z,99017.78
2023-03-31T17:23:04.383Z,99020.44
2023-03-31T17:25:34.493Z,99013.69
2023-03-31T17:28:02.254Z,99016.97
2023-03-31T17:30:30.108Z,99023.09
2023-03-31T17:32:58.349Z,99020.63
2023-03-31T17:35:26.390Z,99023.75
2023-03-31T17:37:55.388Z,99020.81
2023-03-31T17:40:25.183Z,99024.00
2023-03-31T17:42:55.827Z,99015.41
2023-03-31T17:45:23.777Z,99029.59
2023-03-31T17:47:51.659Z,99023.16
2023-03-31T17:50:19.643Z,99029.75
2023-03-31T17:52:47.365Z,99023.31
2023-03-31T17:55:15.533Z,99021.16
2023-03-31T17:57:43.318Z,99016.22
2023-03-31T18:00:16.057Z,99025.00
2023-03-31T18:02:44.273Z,99024.50
2023-03-31T18:05:12.319Z,99019.75
2023-03-31T18:07:41.422Z,99018.91
2023-03-31T18:10:10.733Z,99016.78
2023-03-31T18:12:38.763Z,99023.53
2023-03-31T18:15:07.797Z,99022.53
2023-03-31T18:17:37.292Z,99017.41
2023-03-31T18:20:06.200Z,99017.28
2023-03-31T18:22:33.943Z,99020.75
2023-03-31T18:25:01.679Z,99021.59
2023-03-31T18:27:29.426Z,99019.47
2023-03-31T18:29:57.506Z,99019.47
2023-03-31T18:32:25.460Z,99012.53
2023-03-31T18:34:54.622Z,99017.00
2023-03-31T18:37:22.381Z,99018.63
2023-03-31T18:39:50.102Z,99023.09
2023-03-31T18:42:19.718Z,99023.78
2023-03-31T18:44:47.513Z,99017.66
2023-03-31T18:47:15.276Z,99022.78
2023-03-31T18:49:43.258Z,99017.50
2023-03-31T18:52:12.372Z,99025.78
2023-03-31T18:54:40.092Z,99016.84
2023-03-31T18:57:07.766Z,99029.41
2023-03-31T18:59:35.493Z,99033.22
2023-03-31T19:02:03.291Z,99024.81
2023-03-31T19:04:31.300Z,99029.75
2023-03-31T19:06:58.953Z,99027.75
2023-03-31T19:09:28.847Z,99031.06
2023-03-31T19:11:57.220Z,99028.75
2023-03-31T19:14:25.064Z,99024.47
2023-03-31T19:16:52.843Z,99028.44
2023-03-31T19:19:20.695Z,99011.94
2023-03-31T19:21:48.484Z,99023.50
2023-03-31T19:24:16.933Z,99030.78
2023-03-31T19:26:46.330Z,99029.13
2023-03-31T19:29:14.180Z,99028.63
2023-03-31T19:31:42.319Z,99027.81
2023-03-31T19:34:12.242Z,99026.97
2023-03-31T19:36:40.187Z,99027.81
2023-03-31T19:39:08.103Z,99023.50
2023-03-31T19:41:36.302Z,99025.16
2023-03-31T19:44:05.355Z,99013.59
2023-03-31T19:46:33.148Z,99016.59
2023-03-31T19:49:01.490Z,99017.41
2023-03-31T19:51:29.266Z,99003.38
2023-03-31T19:53:57.534Z,99014.75
2023-03-31T19:56:27.050Z,99003.38
2023-03-31T19:58:54.987Z,99008.47
2023-03-31T20:01:26.116Z,99001.72
2023-03-31T20:03:54.680Z,98993.16
2023-03-31T20:06:24.297Z,98997.44
2023-03-31T20:08:53.463Z,99000.25
2023-03-31T20:11:21.897Z,99002.22
2023-03-31T20:13:49.951Z,99002.41
2023-03-31T20:16:20.306Z,98999.09
2023-03-31T20:18:53.126Z,98989.53
2023-03-31T20:21:22.507Z,98990.84
2023-03-31T20:23:51.170Z,98984.28
2023-03-31T20:26:20.816Z,98986.59
2023-03-31T20:28:50.016Z,98982.94
2023-03-31T20:31:19.677Z,98993.34
2023-03-31T20:33:49.155Z,98980.63
2023-03-31T20:36:18.921Z,98984.91
2023-03-31T20:38:48.210Z,98989.38
2023-03-31T20:41:16.266Z,98979.13
2023-03-31T20:43:44.031Z,98990.22
2023-03-31T20:46:12.306Z,98995.50
2023-03-31T20:48:41.780Z,98993.53
2023-03-31T20:51:12.768Z,98985.25
2023-03-31T20:53:42.710Z,98993.03
2023-03-31T20:56:10.750Z,98988.59
2023-03-31T20:58:38.785Z,98994.16
2023-03-31T21:01:07.047Z,98984.44
2023-03-31T21:03:35.471Z,98986.22
2023-03-31T21:06:04.703Z,98981.66
2023-03-31T21:08:34.139Z,98988.59
2023-03-31T21:11:02.068Z,98986.94
2023-03-31T21:13:30.617Z,98992.22
2023-03-31T21:15:58.905Z,98986.94
2023-03-31T21:18:27.152Z,98987.22
2023-03-31T21:20:56.313Z,98992.03
2023-03-31T21:23:24.786Z,98996.50
2023-03-31T21:25:55.400Z,98995.50
2023-03-31T21:28:25.366Z,98991.06
2023-03-31T21:30:54.335Z,98993.03
2023-03-31T21:33:22.817Z,98997.78
2023-03-31T21:35:50.854Z,98996.16
2023-03-31T21:38:19.667Z,98991.03
2023-03-31T21:40:47.826Z,98996.16
2023-03-31T21:43:17.127Z,98993.53
2023-03-31T21:45:44.840Z,98986.59
2023-03-31T21:48:12.784Z,98991.53
2023-03-31T21:50:41.232Z,98985.94
2023-03-31T21:53:09.799Z,98992.50
2023-03-31T21:55:38.490Z,98978.66
2023-03-31T21:58:07.075Z,98987.56
2023-03-31T22:00:37.352Z,98980.94
2023-03-31T22:03:16.880Z,98979.31
2023-03-31T22:05:50.664Z,98977.66
2023-03-31T22:08:18.402Z,98974.84
2023-03-31T22:10:49.493Z,98989.03
2023-03-31T22:13:17.345Z,98977.34
2023-03-31T22:15:46.625Z,98982.94
2023-03-31T22:18:14.477Z,98986.94
2023-03-31T22:20:42.123Z,98988.56
2023-03-31T22:23:10.224Z,98980.97
2023-03-31T22:25:38.051Z,98979.97
2023-03-31T22:28:07.318Z,98982.16
2023-03-31T22:30:35.242Z,98979.34
2023-03-31T22:33:04.400Z,98980.34
2023-03-31T22:35:32.563Z,98981.16
2023-03-31T22:38:01.376Z,98981.97
2023-03-31T22:40:29.992Z,98979.50
2023-03-31T22:42:58.479Z,98978.69
2023-03-31T22:45:26.320Z,98980.34
2023-03-31T22:47:54.081Z,98982.47
2023-03-31T22:50:23.731Z,98979.66
2023-03-31T22:52:51.858Z,98974.38
2023-03-31T22:55:19.746Z,98973.56
2023-03-31T22:57:47.744Z,98976.38
2023-03-31T23:00:15.949Z,98981.97
2023-03-31T23:02:43.725Z,98979.50
2023-03-31T23:05:12.181Z,98972.75
2023-03-31T23:07:41.523Z,98975.41
2023-03-31T23:10:10.064Z,98978.19
2023-03-31T23:12:37.839Z,98969.59
2023-03-31T23:15:05.834Z,98974.41
2023-03-31T23:17:33.512Z,98968.94
2023-03-31T23:20:01.916Z,98963.66
2023-03-31T23:22:29.684Z,98968.78
2023-03-31T23:24:58.750Z,98964.13
2023-03-31T23:27:26.477Z,98961.50
2023-03-31T23:29:54.214Z,98962.84
2023-03-31T23:32:22.043Z,98968.44
2023-03-31T23:34:49.706Z,98964.00
2023-03-31T23:37:17.382Z,98968.28
2023-03-31T23:39:45.063Z,98961.50
2023-03-31T23:42:17.359Z,98960.50
2023-03-31T23:44:45.014Z,98965.16
2023-03-31T23:47:12.758Z,98961.50
2023-03-31T23:49:40.424Z,98959.88
2023-03-31T23:52:08.070Z,98963.50
2023-03-31T23:54:35.797Z,98967.16
2023-03-31T23:57:04.191Z,98950.78
2023-03-31T23:59:33.325Z,98956.41
